createdAt,value
2019-02-20T00:00:01.833Z,83.30
2019-02-20T00:02:33.619Z,83.26
2019-02-20T00:05:04.122Z,83.38
2019-02-20T00:07:34.847Z,83.47
2019-02-20T00:10:05.638Z,83.75
2019-02-20T00:12:36.253Z,83.90
2019-02-20T00:15:06.753Z,83.91
2019-02-20T00:17:37.158Z,84.24
2019-02-20T00:20:08.033Z,84.58
2019-02-20T00:22:40.636Z,85.13
2019-02-20T00:25:11.244Z,85.39
2019-02-20T00:27:41.641Z,85.45
2019-02-20T00:30:11.987Z,85.23
2019-02-20T00:32:42.263Z,85.02
2019-02-20T00:35:12.371Z,85.02
2019-02-20T00:37:42.591Z,84.72
2019-02-20T00:40:12.746Z,84.56
2019-02-20T00:42:43.047Z,84.56
2019-02-20T00:45:47.812Z,84.44
2019-02-20T00:48:26.332Z,84.96
2019-02-20T00:51:04.697Z,84.67
2019-02-20T00:53:40.301Z,84.53
2019-02-20T00:56:10.423Z,84.05
2019-02-20T00:58:40.733Z,83.96
2019-02-20T01:01:11.001Z,84.09
2019-02-20T01:03:41.122Z,84.35
2019-02-20T01:06:11.360Z,84.56
2019-02-20T01:08:41.972Z,84.78
2019-02-20T01:11:12.273Z,84.95
2019-02-20T01:13:42.787Z,85.62
2019-02-20T01:16:13.094Z,85.37
2019-02-20T01:18:43.413Z,85.59
2019-02-20T01:21:13.613Z,85.32
2019-02-20T01:23:43.802Z,85.21
2019-02-20T01:26:13.944Z,85.07
2019-02-20T01:28:44.091Z,85.01
2019-02-20T01:31:14.316Z,85.18
2019-02-20T01:33:44.457Z,85.91
2019-02-20T01:36:14.697Z,85.59
2019-02-20T01:38:44.881Z,85.58
2019-02-20T01:41:15.106Z,85.80
2019-02-20T01:43:46.308Z,85.85
2019-02-20T01:46:16.415Z,86.02
2019-02-20T01:48:46.702Z,85.93
2019-02-20T01:51:17.238Z,85.76
2019-02-20T01:53:47.793Z,86.15
2019-02-20T01:56:19.096Z,86.73
2019-02-20T01:58:49.241Z,87.34
2019-02-20T02:01:19.565Z,87.03
2019-02-20T02:03:49.798Z,87.53
2019-02-20T02:06:19.952Z,87.30
2019-02-20T02:08:50.090Z,87.94
2019-02-20T02:11:20.339Z,87.71
2019-02-20T02:13:50.504Z,87.19
2019-02-20T02:16:20.796Z,87.40
2019-02-20T02:18:50.954Z,87.62
2019-02-20T02:21:21.144Z,87.21
2019-02-20T02:23:51.263Z,86.81
2019-02-20T02:26:21.442Z,86.62
2019-02-20T02:28:51.573Z,86.88
2019-02-20T02:31:21.803Z,86.78
2019-02-20T02:33:52.095Z,86.63
2019-02-20T02:36:22.217Z,86.49
2019-02-20T02:38:52.361Z,86.11
2019-02-20T02:41:23.552Z,86.23
2019-02-20T02:43:53.732Z,86.18
2019-02-20T02:46:24.086Z,86.15
2019-02-20T02:48:54.368Z,86.18
2019-02-20T02:51:25.603Z,85.86
2019-02-20T02:53:55.724Z,86.17
2019-02-20T02:56:25.975Z,86.47
2019-02-20T02:58:56.453Z,86.62
2019-02-20T03:01:26.999Z,86.80
2019-02-20T03:03:57.214Z,86.61
2019-02-20T03:06:27.387Z,86.04
2019-02-20T03:08:57.749Z,85.78
2019-02-20T03:11:27.928Z,85.69
2019-02-20T03:13:58.197Z,85.58
2019-02-20T03:16:28.537Z,85.22
2019-02-20T03:18:58.692Z,85.02
2019-02-20T03:21:29.032Z,84.91
2019-02-20T03:23:59.631Z,85.01
2019-02-20T03:26:29.924Z,85.12
2019-02-20T03:29:00.110Z,85.49
2019-02-20T03:31:30.588Z,85.87
2019-02-20T03:34:00.921Z,86.15
2019-02-20T03:36:31.020Z,86.45
2019-02-20T03:39:01.338Z,86.37
2019-02-20T03:41:33.088Z,86.46
2019-02-20T03:44:03.475Z,86.66
2019-02-20T03:46:33.588Z,86.53
2019-02-20T03:49:03.986Z,86.53
2019-02-20T03:51:34.101Z,86.72
2019-02-20T03:54:04.356Z,86.84
2019-02-20T03:56:34.610Z,87.16
2019-02-20T03:59:04.838Z,87.41
2019-02-20T04:01:34.977Z,87.59
2019-02-20T04:04:05.531Z,87.53
2019-02-20T04:06:35.963Z,87.28
2019-02-20T04:09:07.970Z,87.23
2019-02-20T04:11:38.279Z,86.93
2019-02-20T04:14:08.560Z,87.07
2019-02-20T04:16:42.627Z,87.49
2019-02-20T04:19:12.802Z,87.78
2019-02-20T04:21:43.083Z,88.06
2019-02-20T04:24:13.501Z,88.23
2019-02-20T04:26:43.846Z,88.32
2019-02-20T04:29:14.312Z,88.70
2019-02-20T04:31:44.779Z,88.10
2019-02-20T04:34:15.009Z,88.04
2019-02-20T04:36:45.312Z,88.16
2019-02-20T04:39:15.543Z,88.46
2019-02-20T04:41:45.788Z,88.52
2019-02-20T04:44:15.917Z,88.67
2019-02-20T04:46:46.025Z,88.69
2019-02-20T04:49:16.347Z,88.84
2019-02-20T04:51:46.632Z,88.77
2019-02-20T04:54:16.905Z,88.60
2019-02-20T04:56:47.019Z,88.26
2019-02-20T04:59:17.153Z,88.14
2019-02-20T05:01:47.264Z,87.98
2019-02-20T05:04:17.697Z,87.82
2019-02-20T05:06:47.836Z,87.98
2019-02-20T05:09:18.059Z,87.64
2019-02-20T05:11:48.155Z,87.43
2019-02-20T05:14:18.315Z,87.30
2019-02-20T05:16:48.518Z,87.20
2019-02-20T05:19:18.796Z,87.21
2019-02-20T05:21:49.027Z,87.44
2019-02-20T05:24:24.797Z,88.12
2019-02-20T05:26:51.043Z,87.94
2019-02-20T05:29:21.278Z,88.39
2019-02-20T05:31:51.670Z,88.45
2019-02-20T05:34:21.861Z,89.52
2019-02-20T05:36:52.184Z,90.66
2019-02-20T05:39:22.403Z,90.77
2019-02-20T05:41:52.628Z,91.13
2019-02-20T05:44:22.907Z,91.07
2019-02-20T05:46:53.144Z,91.14
2019-02-20T05:49:23.602Z,91.10
2019-02-20T05:51:54.038Z,90.66
2019-02-20T05:54:33.811Z,90.83
2019-02-20T05:56:56.455Z,90.71
2019-02-20T05:59:26.642Z,90.64
2019-02-20T06:01:56.957Z,90.53
2019-02-20T06:04:27.975Z,90.46
2019-02-20T06:06:58.354Z,90.44
2019-02-20T06:09:28.544Z,90.57
2019-02-20T06:11:58.740Z,90.39
2019-02-20T06:14:28.882Z,90.20
2019-02-20T06:16:59.234Z,90.10
2019-02-20T06:19:29.491Z,89.93
2019-02-20T06:21:59.624Z,89.61
2019-02-20T06:24:29.992Z,89.83
2019-02-20T06:27:00.136Z,89.57
2019-02-20T06:29:30.627Z,89.46
2019-02-20T06:32:02.123Z,89.53
2019-02-20T06:34:33.310Z,89.46
2019-02-20T06:37:05.483Z,89.24
2019-02-20T06:39:35.842Z,88.98
2019-02-20T06:42:06.035Z,88.86
2019-02-20T06:44:36.419Z,89.41
2019-02-20T06:47:06.892Z,89.21
2019-02-20T06:49:37.330Z,88.99
2019-02-20T06:52:07.603Z,88.84
2019-02-20T06:54:37.894Z,88.91
2019-02-20T06:57:08.091Z,88.92
2019-02-20T06:59:38.279Z,89.47
2019-02-20T07:02:08.452Z,89.19
2019-02-20T07:04:39.008Z,89.02
2019-02-20T07:07:30.834Z,88.84
2019-02-20T07:10:38.338Z,89.11
2019-02-20T07:13:31.934Z,89.04
2019-02-20T07:16:34.391Z,88.68
2019-02-20T07:19:20.355Z,88.52
2019-02-20T07:22:26.868Z,88.27
2019-02-20T07:25:31.653Z,88.17
2019-02-20T07:28:55.924Z,87.96
2019-02-20T07:31:26.188Z,87.67
2019-02-20T07:33:56.499Z,86.95
2019-02-20T07:36:27.002Z,86.79
2019-02-20T07:38:57.622Z,87.82
2019-02-20T07:41:27.838Z,87.42
2019-02-20T07:43:58.179Z,87.97
2019-02-20T07:46:28.452Z,88.08
2019-02-20T07:48:58.930Z,87.56
2019-02-20T07:51:29.307Z,87.04
2019-02-20T07:53:59.658Z,87.12
2019-02-20T07:56:31.110Z,87.08
2019-02-20T07:59:01.287Z,87.00
2019-02-20T08:01:31.442Z,86.79
2019-02-20T08:04:01.659Z,86.94
2019-02-20T08:06:31.882Z,86.94
2019-02-20T08:09:02.487Z,87.00
2019-02-20T08:11:34.733Z,86.93
2019-02-20T08:14:05.244Z,87.06
2019-02-20T08:16:36.583Z,86.55
2019-02-20T08:19:06.759Z,85.64
2019-02-20T08:21:37.035Z,84.63
2019-02-20T08:24:07.225Z,83.64
2019-02-20T08:26:37.782Z,82.20
2019-02-20T08:29:08.348Z,80.35
2019-02-20T08:31:38.596Z,77.07
2019-02-20T08:34:08.882Z,76.68
2019-02-20T08:36:39.012Z,76.01
2019-02-20T08:39:09.688Z,76.05
2019-02-20T08:41:40.108Z,76.43
2019-02-20T08:44:10.531Z,76.71
2019-02-20T08:46:40.784Z,77.22
2019-02-20T08:49:10.974Z,77.65
2019-02-20T08:51:41.293Z,78.33
2019-02-20T08:54:11.932Z,78.90
2019-02-20T08:56:42.251Z,78.46
2019-02-20T08:59:12.647Z,77.78
2019-02-20T09:01:43.089Z,76.91
2019-02-20T09:04:13.618Z,75.74
2019-02-20T09:06:44.343Z,75.32
2019-02-20T09:09:14.640Z,74.69
2019-02-20T09:11:45.683Z,74.05
2019-02-20T09:14:15.969Z,73.32
2019-02-20T09:16:46.365Z,72.73
2019-02-20T09:19:17.073Z,71.62
2019-02-20T09:21:47.520Z,68.81
2019-02-20T09:24:17.915Z,67.13
2019-02-20T09:26:48.391Z,66.80
2019-02-20T09:29:18.877Z,66.14
2019-02-20T09:31:49.158Z,66.35
2019-02-20T09:34:19.387Z,66.03
2019-02-20T09:36:49.614Z,65.92
2019-02-20T09:39:40.036Z,65.54
2019-02-20T09:42:12.145Z,64.63
2019-02-20T09:44:51.517Z,60.48
2019-02-20T09:47:21.755Z,59.20
2019-02-20T09:49:52.117Z,58.22
2019-02-20T09:52:22.551Z,56.19
2019-02-20T09:54:53.045Z,53.14
2019-02-20T09:57:23.318Z,48.97
2019-02-20T09:59:53.673Z,47.07
2019-02-20T10:02:23.790Z,46.24
2019-02-20T10:04:54.030Z,45.55
2019-02-20T10:07:24.186Z,43.03
2019-02-20T10:09:54.812Z,42.38
2019-02-20T10:12:25.330Z,40.94
2019-02-20T10:14:55.559Z,42.17
2019-02-20T10:17:25.906Z,40.42
2019-02-20T10:19:56.079Z,39.32
2019-02-20T10:22:26.251Z,36.56
2019-02-20T10:24:56.511Z,33.36
2019-02-20T10:27:26.774Z,32.65
2019-02-20T10:29:56.979Z,31.27
2019-02-20T10:32:28.244Z,30.84
2019-02-20T10:34:58.398Z,30.45
2019-02-20T10:37:29.059Z,29.50
2019-02-20T10:39:59.555Z,27.78
2019-02-20T10:42:30.002Z,26.45
2019-02-20T10:45:00.795Z,26.18
2019-02-20T10:47:31.347Z,26.13
2019-02-20T10:50:01.565Z,26.53
2019-02-20T10:52:32.233Z,26.80
2019-02-20T10:55:02.575Z,26.58
2019-02-20T10:57:33.170Z,26.80
2019-02-20T11:00:03.807Z,27.88
2019-02-20T11:02:36.223Z,29.29
2019-02-20T11:05:06.680Z,31.21
2019-02-20T11:07:37.661Z,31.12
2019-02-20T11:10:12.475Z,30.94
2019-02-20T11:12:42.979Z,29.20
2019-02-20T11:15:13.726Z,28.76
2019-02-20T11:17:45.152Z,30.02
2019-02-20T11:20:15.456Z,28.83
2019-02-20T11:22:45.894Z,31.14
2019-02-20T11:25:16.594Z,31.44
2019-02-20T11:27:47.070Z,31.67
2019-02-20T11:30:18.979Z,33.03
2019-02-20T11:32:49.615Z,35.80
2019-02-20T11:35:20.351Z,35.80
2019-02-20T11:37:50.607Z,35.21
2019-02-20T11:40:21.137Z,36.03
2019-02-20T11:42:51.822Z,35.75
2019-02-20T11:45:22.255Z,35.64
2019-02-20T11:47:52.704Z,36.15
2019-02-20T11:50:23.468Z,36.12
2019-02-20T11:52:53.953Z,35.93
2019-02-20T11:55:24.384Z,35.10
2019-02-20T11:58:00.639Z,34.26
2019-02-20T12:00:27.985Z,33.47
2019-02-20T12:02:58.470Z,33.48
2019-02-20T12:05:29.007Z,34.85
2019-02-20T12:07:59.551Z,34.56
2019-02-20T12:10:30.143Z,33.91
2019-02-20T12:13:01.231Z,32.85
2019-02-20T12:15:31.744Z,34.83
2019-02-20T12:18:01.985Z,33.99
2019-02-20T12:20:32.709Z,32.93
2019-02-20T12:23:03.754Z,31.85
2019-02-20T12:25:34.621Z,33.37
2019-02-20T12:28:06.901Z,34.26
2019-02-20T12:30:38.077Z,33.37
2019-02-20T12:33:10.320Z,35.10
2019-02-20T12:35:42.278Z,34.26
2019-02-20T12:38:14.805Z,34.43
2019-02-20T12:40:45.240Z,36.12
2019-02-20T12:43:15.990Z,35.47
2019-02-20T12:45:46.357Z,34.78
2019-02-20T12:48:16.595Z,34.22
2019-02-20T12:50:47.175Z,33.14
2019-02-20T12:53:17.516Z,33.03
2019-02-20T12:55:48.328Z,34.76
2019-02-20T12:58:20.529Z,35.68
2019-02-20T13:00:52.380Z,36.54
2019-02-20T13:03:23.003Z,38.19
2019-02-20T13:05:53.777Z,37.65
2019-02-20T13:08:25.361Z,38.04
2019-02-20T13:10:57.284Z,39.41
2019-02-20T13:13:27.678Z,40.53
2019-02-20T13:15:58.150Z,37.88
2019-02-20T13:18:28.849Z,35.49
2019-02-20T13:20:59.364Z,35.62
2019-02-20T13:23:29.721Z,35.06
2019-02-20T13:26:00.368Z,34.07
2019-02-20T13:28:30.808Z,34.50
2019-02-20T13:31:01.956Z,35.21
2019-02-20T13:33:32.285Z,35.07
2019-02-20T13:36:03.167Z,35.45
2019-02-20T13:38:33.431Z,34.42
2019-02-20T13:41:03.831Z,35.32
2019-02-20T13:43:34.127Z,34.66
2019-02-20T13:46:04.695Z,34.75
2019-02-20T13:48:35.213Z,34.53
2019-02-20T13:51:05.599Z,34.42
2019-02-20T13:53:36.244Z,35.35
2019-02-20T13:56:07.006Z,34.22
2019-02-20T13:58:37.231Z,33.96
2019-02-20T14:01:08.898Z,33.41
2019-02-20T14:03:39.461Z,32.71
2019-02-20T14:06:10.194Z,33.35
2019-02-20T14:08:40.598Z,33.02
2019-02-20T14:11:11.268Z,33.52
2019-02-20T14:13:41.786Z,34.50
2019-02-20T14:16:12.263Z,34.50
2019-02-20T14:18:42.553Z,35.87
2019-02-20T14:21:12.901Z,35.67
2019-02-20T14:23:43.679Z,35.88
2019-02-20T14:26:14.347Z,37.17
2019-02-20T14:28:44.794Z,37.01
2019-02-20T14:31:16.262Z,37.08
2019-02-20T14:33:46.678Z,37.62
2019-02-20T14:36:16.880Z,37.61
2019-02-20T14:38:48.013Z,37.63
2019-02-20T14:41:18.736Z,37.44
2019-02-20T14:43:49.199Z,36.79
2019-02-20T14:46:19.584Z,37.13
2019-02-20T14:48:49.915Z,37.30
2019-02-20T14:51:20.874Z,37.47
2019-02-20T14:53:51.848Z,37.06
2019-02-20T14:56:22.142Z,37.32
2019-02-20T14:58:52.611Z,37.01
2019-02-20T15:01:23.184Z,37.63
2019-02-20T15:03:53.585Z,38.25
2019-02-20T15:06:24.161Z,38.54
2019-02-20T15:08:54.733Z,38.45
2019-02-20T15:11:25.294Z,39.10
2019-02-20T15:13:56.542Z,40.41
2019-02-20T15:16:26.734Z,39.75
2019-02-20T15:18:57.457Z,39.95
2019-02-20T15:21:28.079Z,40.47
2019-02-20T15:23:58.369Z,41.03
2019-02-20T15:26:28.686Z,41.59
2019-02-20T15:28:59.267Z,42.38
2019-02-20T15:31:33.717Z,42.48
2019-02-20T15:34:01.871Z,42.78
2019-02-20T15:36:34.035Z,43.36
2019-02-20T15:39:05.518Z,43.86
2019-02-20T15:41:37.548Z,44.20
2019-02-20T15:44:07.706Z,44.70
2019-02-20T15:46:37.966Z,45.38
2019-02-20T15:49:08.799Z,45.59
2019-02-20T15:51:39.130Z,45.92
2019-02-20T15:54:09.481Z,45.90
2019-02-20T15:56:39.782Z,46.15
2019-02-20T15:59:10.087Z,46.85
2019-02-20T16:01:40.932Z,47.24
2019-02-20T16:04:11.302Z,47.62
2019-02-20T16:06:41.744Z,48.59
2019-02-20T16:09:12.398Z,48.84
2019-02-20T16:11:42.775Z,49.67
2019-02-20T16:14:13.156Z,49.94
2019-02-20T16:16:43.765Z,50.47
2019-02-20T16:19:14.271Z,50.79
2019-02-20T16:21:44.626Z,51.71
2019-02-20T16:24:14.859Z,52.07
2019-02-20T16:26:45.689Z,52.49
2019-02-20T16:29:16.175Z,53.28
2019-02-20T16:31:46.976Z,53.84
2019-02-20T16:34:17.996Z,54.45
2019-02-20T16:36:49.313Z,55.16
2019-02-20T16:39:19.821Z,55.71
2019-02-20T16:41:50.021Z,56.00
2019-02-20T16:44:20.345Z,56.86
2019-02-20T16:46:50.567Z,57.55
2019-02-20T16:49:20.834Z,57.86
2019-02-20T16:51:52.352Z,58.01
2019-02-20T16:54:23.203Z,58.41
2019-02-20T16:56:53.539Z,58.96
2019-02-20T16:59:24.343Z,59.36
2019-02-20T17:01:54.630Z,59.99
2019-02-20T17:04:25.437Z,60.47
2019-02-20T17:06:55.988Z,60.37
2019-02-20T17:09:26.309Z,60.70
2019-02-20T17:11:57.073Z,61.14
2019-02-20T17:14:27.656Z,61.55
2019-02-20T17:16:58.002Z,62.08
2019-02-20T17:19:28.927Z,62.61
2019-02-20T17:21:59.138Z,62.60
2019-02-20T17:24:29.466Z,63.04
2019-02-20T17:27:00.072Z,64.16
2019-02-20T17:29:30.504Z,63.87
2019-02-20T17:32:00.892Z,63.86
2019-02-20T17:34:31.234Z,64.57
2019-02-20T17:37:01.566Z,65.48
2019-02-20T17:39:32.146Z,65.58
2019-02-20T17:42:02.846Z,66.46
2019-02-20T17:44:33.363Z,66.48
2019-02-20T17:47:03.731Z,66.80
2019-02-20T17:49:34.060Z,67.04
2019-02-20T17:52:04.712Z,67.42
2019-02-20T17:54:35.363Z,67.58
2019-02-20T17:57:05.638Z,67.61
2019-02-20T17:59:36.083Z,67.81
2019-02-20T18:02:06.764Z,67.84
2019-02-20T18:04:37.188Z,68.16
2019-02-20T18:07:07.510Z,68.47
2019-02-20T18:09:37.750Z,68.68
2019-02-20T18:12:08.039Z,68.71
2019-02-20T18:14:38.682Z,69.05
2019-02-20T18:17:09.218Z,69.30
2019-02-20T18:19:39.533Z,69.39
2019-02-20T18:22:10.021Z,69.75
2019-02-20T18:24:40.832Z,70.16
2019-02-20T18:27:12.250Z,70.34
2019-02-20T18:29:42.823Z,70.73
2019-02-20T18:32:14.159Z,71.19
2019-02-20T18:34:44.591Z,71.50
2019-02-20T18:37:14.845Z,71.92
2019-02-20T18:39:45.329Z,72.09
2019-02-20T18:42:15.701Z,71.97
2019-02-20T18:44:46.271Z,72.43
2019-02-20T18:47:17.107Z,72.48
2019-02-20T18:49:49.425Z,73.14
2019-02-20T18:52:19.698Z,73.87
2019-02-20T18:54:50.637Z,74.31
2019-02-20T18:57:21.178Z,74.32
2019-02-20T18:59:51.586Z,73.60
2019-02-20T19:02:22.511Z,73.75
2019-02-20T19:04:52.964Z,74.01
2019-02-20T19:07:24.122Z,74.08
2019-02-20T19:09:54.936Z,74.25
2019-02-20T19:13:28.880Z,74.02
2019-02-20T19:16:22.294Z,73.65
2019-02-20T19:19:33.424Z,74.16
2019-02-20T19:22:43.715Z,74.37
2019-02-20T19:25:53.341Z,74.83
2019-02-20T19:28:52.576Z,75.13
2019-02-20T19:32:04.113Z,75.25
2019-02-20T19:35:35.013Z,75.88
2019-02-20T19:38:44.462Z,75.94
2019-02-20T19:41:45.496Z,76.12
2019-02-20T19:44:44.257Z,75.99
2019-02-20T19:47:50.689Z,76.43
2019-02-20T19:51:14.277Z,76.57
2019-02-20T19:54:24.709Z,77.02
2019-02-20T19:57:28.408Z,77.31
2019-02-20T20:00:18.702Z,77.92
2019-02-20T20:03:05.270Z,78.44
2019-02-20T20:06:23.048Z,79.08
2019-02-20T20:09:32.758Z,79.35
2019-02-20T20:12:35.072Z,78.70
2019-02-20T20:15:42.264Z,78.31
2019-02-20T20:18:43.126Z,78.62
2019-02-20T20:21:42.020Z,78.92
2019-02-20T20:24:50.383Z,79.07
2019-02-20T20:28:00.697Z,79.69
2019-02-20T20:31:01.695Z,79.74
2019-02-20T20:33:55.406Z,80.06
2019-02-20T20:36:58.678Z,80.67
2019-02-20T20:40:19.427Z,80.99
2019-02-20T20:43:33.718Z,81.18
2019-02-20T20:46:18.591Z,81.10
2019-02-20T20:49:28.818Z,81.23
2019-02-20T20:52:38.999Z,81.37
2019-02-20T20:55:52.867Z,81.21
2019-02-20T20:58:53.868Z,80.43
2019-02-20T21:01:58.654Z,80.09
2019-02-20T21:05:10.939Z,79.75
2019-02-20T21:08:10.692Z,79.85
2019-02-20T21:11:10.618Z,79.76
2019-02-20T21:14:14.014Z,79.68
2019-02-20T21:17:37.467Z,79.88
2019-02-20T21:20:48.585Z,79.88
2019-02-20T21:24:01.959Z,80.01
2019-02-20T21:27:09.384Z,80.50
2019-02-20T21:30:17.923Z,80.76
2019-02-20T21:33:38.374Z,80.38
2019-02-20T21:36:31.107Z,80.69
2019-02-20T21:39:36.573Z,80.88
2019-02-20T21:42:43.766Z,80.65
2019-02-20T21:46:05.720Z,81.00
2019-02-20T21:49:24.551Z,80.53
2019-02-20T21:52:25.416Z,81.03
2019-02-20T21:55:42.381Z,81.41
2019-02-20T21:59:01.876Z,81.39
2019-02-20T22:01:47.901Z,81.35
2019-02-20T22:04:49.381Z,81.51
2019-02-20T22:08:07.473Z,81.67
2019-02-20T22:11:27.401Z,82.32
2019-02-20T22:14:26.762Z,82.56
2019-02-20T22:17:40.062Z,82.60
2019-02-20T22:20:46.150Z,82.87
2019-02-20T22:24:00.020Z,82.67
2019-02-20T22:26:51.586Z,82.66
2019-02-20T22:30:03.039Z,82.48
2019-02-20T22:33:00.145Z,82.23
2019-02-20T22:36:17.437Z,82.54
2019-02-20T22:39:19.571Z,82.94
2019-02-20T22:42:18.334Z,83.11
2019-02-20T22:45:17.672Z,83.61
2019-02-20T22:48:17.214Z,83.92
2019-02-20T22:51:10.779Z,83.95
2019-02-20T22:54:15.367Z,83.78
2019-02-20T22:57:42.063Z,83.97
2019-02-20T23:00:52.995Z,83.82
2019-02-20T23:03:49.737Z,83.64
2019-02-20T23:06:45.238Z,83.58
2019-02-20T23:09:53.710Z,83.58
2019-02-20T23:12:58.902Z,83.63
2019-02-20T23:15:29.231Z,83.82
2019-02-20T23:17:59.441Z,83.90
2019-02-20T23:20:29.587Z,84.17
2019-02-20T23:22:59.779Z,84.16
2019-02-20T23:25:29.938Z,84.09
2019-02-20T23:28:01.322Z,84.26
2019-02-20T23:30:31.522Z,84.35
2019-02-20T23:33:02.024Z,84.45
2019-02-20T23:35:32.504Z,84.81
2019-02-20T23:38:03.056Z,85.11
2019-02-20T23:40:33.283Z,85.14
2019-02-20T23:43:04.006Z,85.18
2019-02-20T23:45:35.874Z,84.85
2019-02-20T23:48:06.466Z,84.76
2019-02-20T23:50:36.701Z,84.35
2019-02-20T23:53:07.053Z,84.37
2019-02-20T23:55:37.244Z,84.69
2019-02-20T23:58:07.516Z,85.25
